sensor_id;sensor_type;location;lat;lon;timestamp;pressure;altitude;pressure_sealevel;temperature;humidity
70468;BME280;57934;51.532;7.684;2023-03-01T00:01:19;101782.50;;;-1.96;82.46
70468;BME280;57934;51.532;7.684;2023-03-01T00:03:45;101785.91;;;-1.96;81.88
70468;BME280;57934;51.532;7.684;2023-03-01T00:06:11;101779.97;;;-1.98;82.20
70468;BME280;57934;51.532;7.684;2023-03-01T00:08:37;101780.91;;;-1.99;81.67
70468;BME280;57934;51.532;7.684;2023-03-01T00:11:16;101768.03;;;-2.00;81.48
70468;BME280;57934;51.532;7.684;2023-03-01T00:13:46;101778.38;;;-2.00;81.89
70468;BME280;57934;51.532;7.684;2023-03-01T00:16:15;101773.19;;;-2.00;81.57
70468;BME280;57934;51.532;7.684;2023-03-01T00:18:41;101781.03;;;-2.02;81.84
70468;BME280;57934;51.532;7.684;2023-03-01T00:21:08;101778.22;;;-1.97;81.64
70468;BME280;57934;51.532;7.684;2023-03-01T00:23:34;101782.50;;;-1.96;81.38
70468;BME280;57934;51.532;7.684;2023-03-01T00:26:01;101783.53;;;-2.00;81.31
70468;BME280;57934;51.532;7.684;2023-03-01T00:28:27;101774.22;;;-2.03;80.79
70468;BME280;57934;51.532;7.684;2023-03-01T00:30:53;101770.94;;;-2.06;80.73
70468;BME280;57934;51.532;7.684;2023-03-01T00:33:19;101766.66;;;-2.07;81.79
70468;BME280;57934;51.532;7.684;2023-03-01T00:35:45;101755.63;;;-2.11;81.40
70468;BME280;57934;51.532;7.684;2023-03-01T00:38:11;101761.72;;;-2.12;81.47
70468;BME280;57934;51.532;7.684;2023-03-01T00:40:37;101766.22;;;-2.16;81.90
70468;BME280;57934;51.532;7.684;2023-03-01T00:43:03;101762.69;;;-2.14;82.06
70468;BME280;57934;51.532;7.684;2023-03-01T00:45:30;101757.53;;;-2.14;81.85
70468;BME280;57934;51.532;7.684;2023-03-01T00:47:58;101745.63;;;-2.17;81.93
70468;BME280;57934;51.532;7.684;2023-03-01T00:50:24;101739.63;;;-2.18;82.55
70468;BME280;57934;51.532;7.684;2023-03-01T00:52:54;101737.94;;;-2.19;82.40
70468;BME280;57934;51.532;7.684;2023-03-01T00:55:21;101731.09;;;-2.20;82.50
70468;BME280;57934;51.532;7.684;2023-03-01T00:57:48;101740.66;;;-2.22;82.18
70468;BME280;57934;51.532;7.684;2023-03-01T01:00:14;101742.50;;;-2.24;81.69
70468;BME280;57934;51.532;7.684;2023-03-01T01:02:40;101740.97;;;-2.28;82.10
70468;BME280;57934;51.532;7.684;2023-03-01T01:05:07;101733.38;;;-2.31;82.00
70468;BME280;57934;51.532;7.684;2023-03-01T01:07:33;101721.59;;;-2.36;82.83
70468;BME280;57934;51.532;7.684;2023-03-01T01:09:59;101736.09;;;-2.34;82.65
70468;BME280;57934;51.532;7.684;2023-03-01T01:12:25;101733.53;;;-2.34;82.38
70468;BME280;57934;51.532;7.684;2023-03-01T01:14:51;101725.09;;;-2.37;83.07
70468;BME280;57934;51.532;7.684;2023-03-01T01:17:17;101726.88;;;-2.40;82.52
70468;BME280;57934;51.532;7.684;2023-03-01T01:19:43;101724.31;;;-2.40;82.66
70468;BME280;57934;51.532;7.684;2023-03-01T01:22:09;101735.31;;;-2.36;83.23
70468;BME280;57934;51.532;7.684;2023-03-01T01:24:35;101729.56;;;-2.41;82.82
70468;BME280;57934;51.532;7.684;2023-03-01T01:27:01;101740.88;;;-2.44;82.80
70468;BME280;57934;51.532;7.684;2023-03-01T01:29:27;101733.22;;;-2.45;83.62
70468;BME280;57934;51.532;7.684;2023-03-01T01:31:53;101735.84;;;-2.47;83.89
70468;BME280;57934;51.532;7.684;2023-03-01T01:34:21;101734.03;;;-2.45;83.52
70468;BME280;57934;51.532;7.684;2023-03-01T01:36:51;101732.56;;;-2.50;84.24
70468;BME280;57934;51.532;7.684;2023-03-01T01:39:21;101734.47;;;-2.54;83.93
70468;BME280;57934;51.532;7.684;2023-03-01T01:41:48;101731.19;;;-2.57;84.33
70468;BME280;57934;51.532;7.684;2023-03-01T01:44:23;101737.50;;;-2.63;84.62
70468;BME280;57934;51.532;7.684;2023-03-01T01:47:03;101735.75;;;-2.62;84.90
70468;BME280;57934;51.532;7.684;2023-03-01T01:49:48;101724.78;;;-2.68;85.62
70468;BME280;57934;51.532;7.684;2023-03-01T01:52:19;101717.13;;;-2.69;85.26
70468;BME280;57934;51.532;7.684;2023-03-01T01:54:52;101711.31;;;-2.74;85.38
70468;BME280;57934;51.532;7.684;2023-03-01T01:57:27;101713.16;;;-2.76;85.84
70468;BME280;57934;51.532;7.684;2023-03-01T01:59:58;101714.06;;;-2.77;85.96
70468;BME280;57934;51.532;7.684;2023-03-01T02:02:26;101706.41;;;-2.79;85.95
70468;BME280;57934;51.532;7.684;2023-03-01T02:04:58;101709.06;;;-2.80;86.08
70468;BME280;57934;51.532;7.684;2023-03-01T02:07:30;101707.31;;;-2.80;86.39
70468;BME280;57934;51.532;7.684;2023-03-01T02:09:56;101709.19;;;-2.83;86.56
70468;BME280;57934;51.532;7.684;2023-03-01T02:12:24;101708.38;;;-2.84;86.67
70468;BME280;57934;51.532;7.684;2023-03-01T02:14:51;101698.94;;;-2.85;86.09
70468;BME280;57934;51.532;7.684;2023-03-01T02:17:18;101695.53;;;-2.85;86.44
70468;BME280;57934;51.532;7.684;2023-03-01T02:20:04;101689.53;;;-2.86;86.28
70468;BME280;57934;51.532;7.684;2023-03-01T02:22:36;101688.00;;;-2.90;86.62
70468;BME280;57934;51.532;7.684;2023-03-01T02:25:18;101678.59;;;-2.91;86.24
70468;BME280;57934;51.532;7.684;2023-03-01T02:30:10;101679.47;;;-2.92;86.41
70468;BME280;57934;51.532;7.684;2023-03-01T02:32:40;101687.31;;;-2.94;87.13
70468;BME280;57934;51.532;7.684;2023-03-01T02:35:09;101692.53;;;-2.95;86.63
70468;BME280;57934;51.532;7.684;2023-03-01T02:37:39;101699.44;;;-2.96;86.93
70468;BME280;57934;51.532;7.684;2023-03-01T02:40:14;101692.47;;;-2.94;86.45
70468;BME280;57934;51.532;7.684;2023-03-01T02:42:55;101695.88;;;-2.93;86.62
70468;BME280;57934;51.532;7.684;2023-03-01T02:45:22;101692.53;;;-2.95;86.67
70468;BME280;57934;51.532;7.684;2023-03-01T02:47:49;101697.63;;;-2.94;86.30
70468;BME280;57934;51.532;7.684;2023-03-01T02:51:22;101689.94;;;-2.95;86.37
70468;BME280;57934;51.532;7.684;2023-03-01T02:55:59;101693.53;;;-2.98;86.42
70468;BME280;57934;51.532;7.684;2023-03-01T02:58:25;101679.84;;;-3.00;86.87
70468;BME280;57934;51.532;7.684;2023-03-01T03:00:51;101679.00;;;-3.00;86.58
70468;BME280;57934;51.532;7.684;2023-03-01T03:03:20;101678.25;;;-3.02;86.62
70468;BME280;57934;51.532;7.684;2023-03-01T03:05:47;101671.28;;;-3.00;86.63
70468;BME280;57934;51.532;7.684;2023-03-01T03:08:14;101684.16;;;-3.00;86.51
70468;BME280;57934;51.532;7.684;2023-03-01T03:10:49;101674.00;;;-3.03;86.55
70468;BME280;57934;51.532;7.684;2023-03-01T03:13:15;101675.06;;;-3.07;86.86
70468;BME280;57934;51.532;7.684;2023-03-01T03:15:43;101676.78;;;-3.08;86.75
70468;BME280;57934;51.532;7.684;2023-03-01T03:18:11;101673.53;;;-3.12;86.93
70468;BME280;57934;51.532;7.684;2023-03-01T03:20:39;101681.31;;;-3.13;86.96
70468;BME280;57934;51.532;7.684;2023-03-01T03:23:06;101679.50;;;-3.11;87.69
70468;BME280;57934;51.532;7.684;2023-03-01T03:25:32;101676.16;;;-3.13;87.08
70468;BME280;57934;51.532;7.684;2023-03-01T03:27:58;101671.91;;;-3.14;87.27
70468;BME280;57934;51.532;7.684;2023-03-01T03:30:26;101670.16;;;-3.14;87.18
70468;BME280;57934;51.532;7.684;2023-03-01T03:32:53;101663.41;;;-3.16;87.33
70468;BME280;57934;51.532;7.684;2023-03-01T03:35:22;101665.97;;;-3.16;87.44
70468;BME280;57934;51.532;7.684;2023-03-01T03:37:48;101656.56;;;-3.17;87.76
70468;BME280;57934;51.532;7.684;2023-03-01T03:42:55;101646.34;;;-3.19;87.42
70468;BME280;57934;51.532;7.684;2023-03-01T03:45:21;101641.31;;;-3.22;87.65
70468;BME280;57934;51.532;7.684;2023-03-01T03:47:47;101635.34;;;-3.22;87.44
70468;BME280;57934;51.532;7.684;2023-03-01T03:50:15;101623.31;;;-3.23;87.56
70468;BME280;57934;51.532;7.684;2023-03-01T03:52:42;101627.66;;;-3.24;87.88
70468;BME280;57934;51.532;7.684;2023-03-01T03:55:10;101622.63;;;-3.27;87.89
70468;BME280;57934;51.532;7.684;2023-03-01T03:57:37;101624.47;;;-3.29;87.71
70468;BME280;57934;51.532;7.684;2023-03-01T04:00:05;101635.38;;;-3.24;87.45
70468;BME280;57934;51.532;7.684;2023-03-01T04:02:44;101628.56;;;-3.25;87.49
70468;BME280;57934;51.532;7.684;2023-03-01T04:05:13;101632.81;;;-3.24;87.87
70468;BME280;57934;51.532;7.684;2023-03-01T04:07:41;101629.47;;;-3.26;87.66
70468;BME280;57934;51.532;7.684;2023-03-01T04:10:11;101636.38;;;-3.26;87.62
70468;BME280;57934;51.532;7.684;2023-03-01T04:12:37;101643.34;;;-3.28;87.69
70468;BME280;57934;51.532;7.684;2023-03-01T04:15:06;101649.47;;;-3.31;88.41
70468;BME280;57934;51.532;7.684;2023-03-01T04:17:42;101645.78;;;-3.25;88.04
70468;BME280;57934;51.532;7.684;2023-03-01T04:20:14;101642.25;;;-3.23;87.64
70468;BME280;57934;51.532;7.684;2023-03-01T04:22:44;101633.59;;;-3.22;87.94
70468;BME280;57934;51.532;7.684;2023-03-01T04:25:13;101651.34;;;-3.34;88.25
70468;BME280;57934;51.532;7.684;2023-03-01T04:27:40;101645.56;;;-3.40;88.21
70468;BME280;57934;51.532;7.684;2023-03-01T04:30:07;101646.91;;;-3.50;88.89
70468;BME280;57934;51.532;7.684;2023-03-01T04:32:33;101643.34;;;-3.47;89.29
70468;BME280;57934;51.532;7.684;2023-03-01T04:34:59;101652.81;;;-3.48;89.02
70468;BME280;57934;51.532;7.684;2023-03-01T04:37:26;101650.56;;;-3.55;89.42
70468;BME280;57934;51.532;7.684;2023-03-01T04:39:53;101635.06;;;-3.54;89.64
70468;BME280;57934;51.532;7.684;2023-03-01T04:42:19;101637.06;;;-3.61;89.79
70468;BME280;57934;51.532;7.684;2023-03-01T04:44:45;101635.47;;;-3.63;90.31
70468;BME280;57934;51.532;7.684;2023-03-01T04:47:11;101635.69;;;-3.68;90.31
70468;BME280;57934;51.532;7.684;2023-03-01T04:49:38;101640.97;;;-3.71;90.37
70468;BME280;57934;51.532;7.684;2023-03-01T04:52:04;101645.34;;;-3.73;90.33
70468;BME280;57934;51.532;7.684;2023-03-01T04:54:32;101642.84;;;-3.74;91.00
70468;BME280;57934;51.532;7.684;2023-03-01T04:56:58;101643.88;;;-3.78;90.70
70468;BME280;57934;51.532;7.684;2023-03-01T04:59:24;101638.78;;;-3.80;91.17
70468;BME280;57934;51.532;7.684;2023-03-01T05:01:51;101642.25;;;-3.81;90.94
70468;BME280;57934;51.532;7.684;2023-03-01T05:04:18;101645.81;;;-3.84;91.08
70468;BME280;57934;51.532;7.684;2023-03-01T05:06:44;101643.31;;;-3.85;91.01
70468;BME280;57934;51.532;7.684;2023-03-01T05:09:10;101646.72;;;-3.85;91.44
70468;BME280;57934;51.532;7.684;2023-03-01T05:11:37;101642.47;;;-3.86;91.67
70468;BME280;57934;51.532;7.684;2023-03-01T05:14:04;101645.75;;;-3.82;91.42
70468;BME280;57934;51.532;7.684;2023-03-01T05:16:31;101636.41;;;-3.85;91.36
70468;BME280;57934;51.532;7.684;2023-03-01T05:18:58;101638.06;;;-3.84;91.23
70468;BME280;57934;51.532;7.684;2023-03-01T05:21:24;101630.47;;;-3.87;91.48
70468;BME280;57934;51.532;7.684;2023-03-01T05:23:51;101636.47;;;-3.86;91.64
70468;BME280;57934;51.532;7.684;2023-03-01T05:26:21;101626.94;;;-3.84;91.42
70468;BME280;57934;51.532;7.684;2023-03-01T05:28:47;101627.00;;;-3.86;91.42
70468;BME280;57934;51.532;7.684;2023-03-01T05:31:14;101624.44;;;-3.86;91.33
70468;BME280;57934;51.532;7.684;2023-03-01T05:33:40;101621.00;;;-3.86;90.87
70468;BME280;57934;51.532;7.684;2023-03-01T05:36:08;101618.59;;;-3.89;90.98
70468;BME280;57934;51.532;7.684;2023-03-01T05:38:35;101615.22;;;-3.91;91.15
70468;BME280;57934;51.532;7.684;2023-03-01T05:41:02;101622.16;;;-3.93;91.38
70468;BME280;57934;51.532;7.684;2023-03-01T05:43:31;101618.75;;;-3.94;91.52
70468;BME280;57934;51.532;7.684;2023-03-01T05:45:59;101624.81;;;-3.95;91.82
70468;BME280;57934;51.532;7.684;2023-03-01T05:48:25;101622.16;;;-3.93;91.67
70468;BME280;57934;51.532;7.684;2023-03-01T05:50:51;101632.44;;;-3.92;91.74
70468;BME280;57934;51.532;7.684;2023-03-01T05:53:19;101624.81;;;-3.95;91.46
70468;BME280;57934;51.532;7.684;2023-03-01T05:55:47;101630.06;;;-3.96;91.71
70468;BME280;57934;51.532;7.684;2023-03-01T05:58:16;101625.75;;;-3.96;91.75
70468;BME280;57934;51.532;7.684;2023-03-01T06:00:43;101622.25;;;-3.95;90.90
70468;BME280;57934;51.532;7.684;2023-03-01T06:03:11;101618.84;;;-3.95;91.18
70468;BME280;57934;51.532;7.684;2023-03-01T06:05:38;101618.75;;;-3.94;91.26
70468;BME280;57934;51.532;7.684;2023-03-01T06:08:05;101629.06;;;-3.94;90.68
70468;BME280;57934;51.532;7.684;2023-03-01T06:10:31;101629.16;;;-3.95;91.04
70468;BME280;57934;51.532;7.684;2023-03-01T06:12:57;101632.47;;;-3.93;90.90
70468;BME280;57934;51.532;7.684;2023-03-01T06:15:25;101625.63;;;-3.93;90.86
70468;BME280;57934;51.532;7.684;2023-03-01T06:17:51;101629.06;;;-3.94;91.12
70468;BME280;57934;51.532;7.684;2023-03-01T06:20:22;101631.38;;;-3.88;91.01
70468;BME280;57934;51.532;7.684;2023-03-01T06:22:49;101627.19;;;-3.90;90.96
70468;BME280;57934;51.532;7.684;2023-03-01T06:25:19;101633.88;;;-3.86;90.98
70468;BME280;57934;51.532;7.684;2023-03-01T06:27:46;101625.28;;;-3.85;90.97
70468;BME280;57934;51.532;7.684;2023-03-01T06:32:41;101626.81;;;-3.81;91.03
70468;BME280;57934;51.532;7.684;2023-03-01T06:35:12;101625.88;;;-3.80;91.08
70468;BME280;57934;51.532;7.684;2023-03-01T06:37:39;101622.28;;;-3.76;90.74
70468;BME280;57934;51.532;7.684;2023-03-01T06:40:06;101613.66;;;-3.75;90.00
70468;BME280;57934;51.532;7.684;2023-03-01T06:42:38;101619.44;;;-3.70;89.78
70468;BME280;57934;51.532;7.684;2023-03-01T06:45:05;101614.97;;;-3.66;90.13
70468;BME280;57934;51.532;7.684;2023-03-01T06:47:32;101615.53;;;-3.60;89.75
70468;BME280;57934;51.532;7.684;2023-03-01T06:49:59;101618.69;;;-3.53;89.75
70468;BME280;57934;51.532;7.684;2023-03-01T06:52:25;101608.22;;;-3.50;89.51
70468;BME280;57934;51.532;7.684;2023-03-01T06:54:51;101600.28;;;-3.45;89.20
70468;BME280;57934;51.532;7.684;2023-03-01T06:57:17;101599.09;;;-3.38;88.76
70468;BME280;57934;51.532;7.684;2023-03-01T06:59:43;101599.59;;;-3.30;88.24
70468;BME280;57934;51.532;7.684;2023-03-01T07:02:11;101599.91;;;-3.19;87.99
70468;BME280;57934;51.532;7.684;2023-03-01T07:04:38;101603.09;;;-3.14;86.78
70468;BME280;57934;51.532;7.684;2023-03-01T07:07:04;101604.56;;;-3.08;86.95
70468;BME280;57934;51.532;7.684;2023-03-01T07:09:30;101611.09;;;-3.01;86.90
70468;BME280;57934;51.532;7.684;2023-03-01T07:11:56;101609.81;;;-2.92;86.15
70468;BME280;57934;51.532;7.684;2023-03-01T07:14:23;101604.13;;;-2.81;85.85
70468;BME280;57934;51.532;7.684;2023-03-01T07:16:53;101609.78;;;-2.73;85.31
70468;BME280;57934;51.532;7.684;2023-03-01T07:19:20;101606.72;;;-2.64;85.20
70468;BME280;57934;51.532;7.684;2023-03-01T07:21:46;101601.19;;;-2.56;83.88
70468;BME280;57934;51.532;7.684;2023-03-01T07:24:12;101595.53;;;-2.46;84.17
70468;BME280;57934;51.532;7.684;2023-03-01T07:26:38;101607.88;;;-2.35;83.54
70468;BME280;57934;51.532;7.684;2023-03-01T07:29:06;101604.66;;;-2.23;82.67
70468;BME280;57934;51.532;7.684;2023-03-01T07:31:32;101600.56;;;-2.09;82.93
70468;BME280;57934;51.532;7.684;2023-03-01T07:33:58;101592.59;;;-1.89;82.29
70468;BME280;57934;51.532;7.684;2023-03-01T07:36:25;101591.03;;;-1.76;81.08
70468;BME280;57934;51.532;7.684;2023-03-01T07:38:51;101589.78;;;-1.69;79.69
70468;BME280;57934;51.532;7.684;2023-03-01T07:41:17;101583.63;;;-1.50;79.15
70468;BME280;57934;51.532;7.684;2023-03-01T07:43:43;101583.13;;;-1.25;79.00
70468;BME280;57934;51.532;7.684;2023-03-01T07:46:09;101582.19;;;-1.08;77.74
70468;BME280;57934;51.532;7.684;2023-03-01T07:48:35;101587.22;;;-1.37;77.57
70468;BME280;57934;51.532;7.684;2023-03-01T07:51:04;101584.78;;;-1.24;76.93
70468;BME280;57934;51.532;7.684;2023-03-01T07:53:31;101582.03;;;-1.21;76.57
70468;BME280;57934;51.532;7.684;2023-03-01T07:56:09;101591.03;;;-1.12;76.51
70468;BME280;57934;51.532;7.684;2023-03-01T07:58:37;101586.16;;;-0.87;76.12
70468;BME280;57934;51.532;7.684;2023-03-01T08:01:08;101581.31;;;-0.77;75.00
70468;BME280;57934;51.532;7.684;2023-03-01T08:03:36;101591.81;;;-0.50;74.48
70468;BME280;57934;51.532;7.684;2023-03-01T08:06:04;101590.34;;;-0.40;73.21
70468;BME280;57934;51.532;7.684;2023-03-01T08:08:31;101578.25;;;-0.11;73.11
70468;BME280;57934;51.532;7.684;2023-03-01T08:11:01;101587.44;;;0.65;71.24
70468;BME280;57934;51.532;7.684;2023-03-01T08:13:28;101580.09;;;0.99;69.44
70468;BME280;57934;51.532;7.684;2023-03-01T08:15:59;101577.81;;;1.47;67.73
70468;BME280;57934;51.532;7.684;2023-03-01T08:18:25;101581.38;;;1.97;66.28
70468;BME280;57934;51.532;7.684;2023-03-01T08:20:51;101585.56;;;2.36;64.27
70468;BME280;57934;51.532;7.684;2023-03-01T08:23:17;101577.91;;;3.42;61.44
70468;BME280;57934;51.532;7.684;2023-03-01T08:25:43;101572.06;;;4.07;59.35
70468;BME280;57934;51.532;7.684;2023-03-01T08:28:09;101572.63;;;4.11;57.45
70468;BME280;57934;51.532;7.684;2023-03-01T08:30:35;101570.72;;;3.79;57.89
70468;BME280;57934;51.532;7.684;2023-03-01T08:33:01;101577.84;;;4.44;56.53
70468;BME280;57934;51.532;7.684;2023-03-01T08:35:27;101568.63;;;5.05;55.17
70468;BME280;57934;51.532;7.684;2023-03-01T08:37:53;101573.38;;;5.94;52.47
70468;BME280;57934;51.532;7.684;2023-03-01T08:40:19;101571.97;;;7.10;50.69
70468;BME280;57934;51.532;7.684;2023-03-01T08:42:45;101569.69;;;7.63;48.11
70468;BME280;57934;51.532;7.684;2023-03-01T08:45:12;101564.88;;;7.49;47.36
70468;BME280;57934;51.532;7.684;2023-03-01T08:47:39;101562.53;;;7.56;47.75
70468;BME280;57934;51.532;7.684;2023-03-01T08:50:06;101568.97;;;7.71;46.18
70468;BME280;57934;51.532;7.684;2023-03-01T08:52:32;101563.47;;;8.02;45.40
70468;BME280;57934;51.532;7.684;2023-03-01T08:54:58;101561.13;;;7.99;45.92
70468;BME280;57934;51.532;7.684;2023-03-01T08:57:27;101564.06;;;8.23;45.09
70468;BME280;57934;51.532;7.684;2023-03-01T08:59:53;101564.22;;;9.39;43.63
70468;BME280;57934;51.532;7.684;2023-03-01T09:02:22;101559.97;;;9.98;41.84
70468;BME280;57934;51.532;7.684;2023-03-01T09:04:48;101561.19;;;10.70;40.20
70468;BME280;57934;51.532;7.684;2023-03-01T09:07:14;101564.50;;;9.62;41.08
70468;BME280;57934;51.532;7.684;2023-03-01T09:09:39;101569.75;;;9.10;42.55
70468;BME280;57934;51.532;7.684;2023-03-01T09:12:06;101569.16;;;9.94;41.08
70468;BME280;57934;51.532;7.684;2023-03-01T09:14:32;101572.03;;;10.09;40.32
70468;BME280;57934;51.532;7.684;2023-03-01T09:16:58;101560.13;;;10.31;40.55
70468;BME280;57934;51.532;7.684;2023-03-01T09:19:24;101554.91;;;9.08;41.56
70468;BME280;57934;51.532;7.684;2023-03-01T09:21:50;101546.78;;;7.56;44.41
70468;BME280;57934;51.532;7.684;2023-03-01T09:24:20;101548.09;;;7.13;46.49
70468;BME280;57934;51.532;7.684;2023-03-01T09:26:47;101543.66;;;7.13;47.95
70468;BME280;57934;51.532;7.684;2023-03-01T09:29:13;101539.78;;;7.08;48.21
70468;BME280;57934;51.532;7.684;2023-03-01T09:31:41;101532.88;;;7.83;46.72
70468;BME280;57934;51.532;7.684;2023-03-01T09:34:07;101536.16;;;8.50;44.81
70468;BME280;57934;51.532;7.684;2023-03-01T09:36:34;101530.72;;;8.51;44.44
70468;BME280;57934;51.532;7.684;2023-03-01T09:39:00;101530.25;;;7.83;46.79
70468;BME280;57934;51.532;7.684;2023-03-01T09:44:03;101521.94;;;8.15;44.80
70468;BME280;57934;51.532;7.684;2023-03-01T09:46:43;101523.38;;;7.72;46.41
70468;BME280;57934;51.532;7.684;2023-03-01T09:49:17;101520.28;;;8.42;45.12
70468;BME280;57934;51.532;7.684;2023-03-01T09:51:54;101522.25;;;8.93;44.55
70468;BME280;57934;51.532;7.684;2023-03-01T09:54:21;101514.94;;;8.06;45.48
70468;BME280;57934;51.532;7.684;2023-03-01T09:57:01;101507.16;;;7.86;46.13
70468;BME280;57934;51.532;7.684;2023-03-01T10:04:54;101509.34;;;8.64;44.44
70468;BME280;57934;51.532;7.684;2023-03-01T10:07:42;101513.81;;;8.08;45.38
70468;BME280;57934;51.532;7.684;2023-03-01T10:10:23;101516.59;;;7.79;47.22
70468;BME280;57934;51.532;7.684;2023-03-01T10:12:52;101508.94;;;9.13;44.09
70468;BME280;57934;51.532;7.684;2023-03-01T10:15:34;101512.91;;;7.62;45.01
70468;BME280;57934;51.532;7.684;2023-03-01T10:18:09;101509.41;;;7.15;46.59
70468;BME280;57934;51.532;7.684;2023-03-01T10:20:46;101512.34;;;7.96;45.79
70468;BME280;57934;51.532;7.684;2023-03-01T10:23:14;101515.25;;;7.93;45.80
70468;BME280;57934;51.532;7.684;2023-03-01T10:28:59;101524.19;;;6.58;48.65
70468;BME280;57934;51.532;7.684;2023-03-01T10:31:49;101511.59;;;5.31;51.04
70468;BME280;57934;51.532;7.684;2023-03-01T10:34:30;101496.41;;;5.24;52.45
70468;BME280;57934;51.532;7.684;2023-03-01T10:37:01;101498.31;;;5.74;51.53
70468;BME280;57934;51.532;7.684;2023-03-01T10:39:30;101493.19;;;5.93;51.06
70468;BME280;57934;51.532;7.684;2023-03-01T10:41:59;101483.78;;;6.89;49.04
70468;BME280;57934;51.532;7.684;2023-03-01T10:44:44;101478.41;;;6.62;47.92
70468;BME280;57934;51.532;7.684;2023-03-01T10:47:25;101476.22;;;7.43;47.22
70468;BME280;57934;51.532;7.684;2023-03-01T10:50:00;101485.25;;;8.23;45.61
70468;BME280;57934;51.532;7.684;2023-03-01T10:52:33;101471.94;;;7.79;45.48
70468;BME280;57934;51.532;7.684;2023-03-01T10:57:41;101466.72;;;7.70;46.53
70468;BME280;57934;51.532;7.684;2023-03-01T11:02:42;101462.88;;;7.64;46.25
70468;BME280;57934;51.532;7.684;2023-03-01T11:07:53;101464.13;;;9.04;43.34
70468;BME280;57934;51.532;7.684;2023-03-01T11:10:23;101457.88;;;7.71;45.21
70468;BME280;57934;51.532;7.684;2023-03-01T11:15:33;101450.69;;;7.73;45.48
70468;BME280;57934;51.532;7.684;2023-03-01T11:18:00;101442.81;;;7.35;46.01
70468;BME280;57934;51.532;7.684;2023-03-01T11:20:30;101438.88;;;7.86;45.79
70468;BME280;57934;51.532;7.684;2023-03-01T11:23:08;101445.00;;;8.76;43.46
70468;BME280;57934;51.532;7.684;2023-03-01T11:25:37;101440.97;;;8.28;43.38
70468;BME280;57934;51.532;7.684;2023-03-01T11:28:09;101433.97;;;8.73;42.94
70468;BME280;57934;51.532;7.684;2023-03-01T11:30:48;101444.03;;;8.95;43.38
70468;BME280;57934;51.532;7.684;2023-03-01T11:36:15;101442.13;;;11.70;38.33
70468;BME280;57934;51.532;7.684;2023-03-01T11:38:43;101444.31;;;11.50;37.51
70468;BME280;57934;51.532;7.684;2023-03-01T11:41:18;101436.41;;;11.98;37.02
70468;BME280;57934;51.532;7.684;2023-03-01T11:43:59;101440.88;;;13.19;35.09
70468;BME280;57934;51.532;7.684;2023-03-01T11:57:27;101438.25;;;12.81;35.50
70468;BME280;57934;51.532;7.684;2023-03-01T12:00:07;101435.97;;;14.11;33.15
70468;BME280;57934;51.532;7.684;2023-03-01T12:14:13;101411.38;;;14.24;32.27
70468;BME280;57934;51.532;7.684;2023-03-01T12:17:11;101410.06;;;14.56;31.46
70468;BME280;57934;51.532;7.684;2023-03-01T12:25:41;101402.19;;;10.03;37.98
70468;BME280;57934;51.532;7.684;2023-03-01T12:34:07;101401.81;;;5.50;48.73
70468;BME280;57934;51.532;7.684;2023-03-01T12:36:48;101384.53;;;4.76;50.04
70468;BME280;57934;51.532;7.684;2023-03-01T12:45:05;101385.84;;;4.61;51.67
70468;BME280;57934;51.532;7.684;2023-03-01T12:48:09;101383.47;;;4.58;52.14
70468;BME280;57934;51.532;7.684;2023-03-01T12:50:45;101373.03;;;4.79;52.17
70468;BME280;57934;51.532;7.684;2023-03-01T12:53:26;101378.38;;;4.77;51.11
70468;BME280;57934;51.532;7.684;2023-03-01T12:55:55;101377.81;;;4.74;52.07
70468;BME280;57934;51.532;7.684;2023-03-01T12:58:33;101373.84;;;4.79;52.72
70468;BME280;57934;51.532;7.684;2023-03-01T13:01:19;101365.09;;;4.90;52.41
70468;BME280;57934;51.532;7.684;2023-03-01T13:06:44;101352.38;;;4.76;51.41
70468;BME280;57934;51.532;7.684;2023-03-01T13:09:23;101365.03;;;4.81;50.45
70468;BME280;57934;51.532;7.684;2023-03-01T13:11:50;101357.56;;;4.97;50.52
70468;BME280;57934;51.532;7.684;2023-03-01T13:16:55;101351.56;;;5.06;49.89
70468;BME280;57934;51.532;7.684;2023-03-01T13:19:23;101342.97;;;5.25;50.08
70468;BME280;57934;51.532;7.684;2023-03-01T13:21:52;101347.53;;;5.23;49.58
70468;BME280;57934;51.532;7.684;2023-03-01T13:24:27;101346.50;;;5.14;50.06
70468;BME280;57934;51.532;7.684;2023-03-01T13:27:23;101346.88;;;5.00;49.47
70468;BME280;57934;51.532;7.684;2023-03-01T13:29:58;101335.91;;;5.16;50.29
70468;BME280;57934;51.532;7.684;2023-03-01T13:32:31;101345.69;;;5.14;48.90
70468;BME280;57934;51.532;7.684;2023-03-01T13:37:27;101347.56;;;5.02;49.45
70468;BME280;57934;51.532;7.684;2023-03-01T13:39:57;101352.00;;;5.11;49.30
70468;BME280;57934;51.532;7.684;2023-03-01T13:44:57;101343.31;;;5.11;49.42
70468;BME280;57934;51.532;7.684;2023-03-01T13:47:24;101330.53;;;5.08;49.05
70468;BME280;57934;51.532;7.684;2023-03-01T13:49:59;101333.13;;;5.08;49.92
70468;BME280;57934;51.532;7.684;2023-03-01T13:55:16;101331.84;;;5.23;49.55
70468;BME280;57934;51.532;7.684;2023-03-01T13:57:54;101327.03;;;5.28;49.34
70468;BME280;57934;51.532;7.684;2023-03-01T14:00:26;101320.66;;;5.21;48.77
70468;BME280;57934;51.532;7.684;2023-03-01T14:03:09;101321.50;;;5.21;49.26
70468;BME280;57934;51.532;7.684;2023-03-01T14:05:36;101313.25;;;5.26;48.47
70468;BME280;57934;51.532;7.684;2023-03-01T14:08:19;101308.44;;;5.31;49.45
70468;BME280;57934;51.532;7.684;2023-03-01T14:11:28;101300.59;;;5.31;49.22
70468;BME280;57934;51.532;7.684;2023-03-01T14:17:29;101290.16;;;5.31;49.41
70468;BME280;57934;51.532;7.684;2023-03-01T14:20:00;101298.59;;;5.44;48.15
70468;BME280;57934;51.532;7.684;2023-03-01T14:22:30;101281.78;;;5.47;48.48
70468;BME280;57934;51.532;7.684;2023-03-01T14:24:59;101281.94;;;5.55;48.41
70468;BME280;57934;51.532;7.684;2023-03-01T14:27:30;101285.78;;;5.61;49.04
70468;BME280;57934;51.532;7.684;2023-03-01T14:30:02;101281.22;;;5.43;49.30
70468;BME280;57934;51.532;7.684;2023-03-01T14:32:30;101272.53;;;5.43;49.90
70468;BME280;57934;51.532;7.684;2023-03-01T14:34:58;101268.66;;;5.28;49.21
70468;BME280;57934;51.532;7.684;2023-03-01T14:37:34;101267.16;;;5.35;49.34